sensor_id;sensor_type;location;lat;lon;timestamp;temperature;humidity
10417;DHT22;62605;49.432;8.680;2023-08-07T01:31:02;12.80;99.90
10417;DHT22;62605;49.432;8.680;2023-08-07T01:33:32;12.80;99.90
10417;DHT22;62605;49.432;8.680;2023-08-07T01:36:05;12.80;99.90
10417;DHT22;62605;49.432;8.680;2023-08-07T01:38:37;12.80;99.90
10417;DHT22;62605;49.432;8.680;2023-08-07T01:41:06;12.80;99.90
10417;DHT22;62605;49.432;8.680;2023-08-07T01:43:34;12.80;99.90
10417;DHT22;62605;49.432;8.680;2023-08-07T01:46:03;12.80;99.90
10417;DHT22;62605;49.432;8.680;2023-08-07T01:48:32;12.90;99.90
10417;DHT22;62605;49.432;8.680;2023-08-07T01:51:00;12.80;99.90
10417;DHT22;62605;49.432;8.680;2023-08-07T01:53:27;12.80;99.90
10417;DHT22;62605;49.432;8.680;2023-08-07T01:55:54;12.90;99.90
10417;DHT22;62605;49.432;8.680;2023-08-07T01:58:22;12.90;99.90
10417;DHT22;62605;49.432;8.680;2023-08-07T02:00:49;12.90;99.90
10417;DHT22;62605;49.432;8.680;2023-08-07T02:03:19;12.90;99.90
10417;DHT22;62605;49.432;8.680;2023-08-07T02:05:46;12.90;99.90
10417;DHT22;62605;49.432;8.680;2023-08-07T02:08:15;12.80;99.90
10417;DHT22;62605;49.432;8.680;2023-08-07T02:10:43;12.80;99.90
10417;DHT22;62605;49.432;8.680;2023-08-07T02:13:10;12.90;99.90
10417;DHT22;62605;49.432;8.680;2023-08-07T02:15:38;12.90;99.90
10417;DHT22;62605;49.432;8.680;2023-08-07T02:18:05;12.90;99.90
10417;DHT22;62605;49.432;8.680;2023-08-07T02:20:34;12.90;99.90
10417;DHT22;62605;49.432;8.680;2023-08-07T02:23:02;12.90;99.90
10417;DHT22;62605;49.432;8.680;2023-08-07T02:25:29;12.80;99.90
10417;DHT22;62605;49.432;8.680;2023-08-07T02:27:57;12.90;99.90
10417;DHT22;62605;49.432;8.680;2023-08-07T02:30:24;12.90;99.90
10417;DHT22;62605;49.432;8.680;2023-08-07T02:32:54;12.80;99.90
10417;DHT22;62605;49.432;8.680;2023-08-07T02:35:22;12.80;99.90
10417;DHT22;62605;49.432;8.680;2023-08-07T02:37:51;12.80;99.90
10417;DHT22;62605;49.432;8.680;2023-08-07T02:40:36;12.80;99.90
10417;DHT22;62605;49.432;8.680;2023-08-07T02:43:18;12.80;99.90
10417;DHT22;62605;49.432;8.680;2023-08-07T02:45:51;12.90;99.90
10417;DHT22;62605;49.432;8.680;2023-08-07T02:49:25;12.90;99.90
10417;DHT22;62605;49.432;8.680;2023-08-07T02:52:29;12.90;99.90
10417;DHT22;62605;49.432;8.680;2023-08-07T02:55:02;12.90;99.90
10417;DHT22;62605;49.432;8.680;2023-08-07T02:57:46;12.90;99.90
10417;DHT22;62605;49.432;8.680;2023-08-07T03:00:32;12.90;99.90
10417;DHT22;62605;49.432;8.680;2023-08-07T03:30:35;12.90;99.90
10417;DHT22;62605;49.432;8.680;2023-08-07T03:33:03;12.90;99.90
10417;DHT22;62605;49.432;8.680;2023-08-07T03:35:30;12.90;99.90
10417;DHT22;62605;49.432;8.680;2023-08-07T03:37:57;12.90;99.90
10417;DHT22;62605;49.432;8.680;2023-08-07T03:40:24;12.90;99.90
10417;DHT22;62605;49.432;8.680;2023-08-07T03:42:51;12.90;99.90
10417;DHT22;62605;49.432;8.680;2023-08-07T03:45:21;12.80;99.90
10417;DHT22;62605;49.432;8.680;2023-08-07T03:47:50;12.80;99.90
10417;DHT22;62605;49.432;8.680;2023-08-07T03:50:19;12.70;99.90
10417;DHT22;62605;49.432;8.680;2023-08-07T03:52:46;12.70;99.90
10417;DHT22;62605;49.432;8.680;2023-08-07T03:55:13;12.70;99.90
10417;DHT22;62605;49.432;8.680;2023-08-07T03:57:40;12.60;99.90
10417;DHT22;62605;49.432;8.680;2023-08-07T04:00:08;12.60;99.90
10417;DHT22;62605;49.432;8.680;2023-08-07T04:02:35;12.50;99.90
10417;DHT22;62605;49.432;8.680;2023-08-07T04:05:04;12.50;99.90
10417;DHT22;62605;49.432;8.680;2023-08-07T04:07:31;12.40;99.90
10417;DHT22;62605;49.432;8.680;2023-08-07T04:09:58;12.50;99.90
10417;DHT22;62605;49.432;8.680;2023-08-07T04:12:25;12.50;99.90
10417;DHT22;62605;49.432;8.680;2023-08-07T04:14:52;12.40;99.90
10417;DHT22;62605;49.432;8.680;2023-08-07T04:17:19;12.40;99.90
10417;DHT22;62605;49.432;8.680;2023-08-07T04:19:46;12.30;99.90
10417;DHT22;62605;49.432;8.680;2023-08-07T04:22:15;12.30;99.90
10417;DHT22;62605;49.432;8.680;2023-08-07T04:24:42;12.30;99.90
10417;DHT22;62605;49.432;8.680;2023-08-07T04:27:09;12.30;99.90
10417;DHT22;62605;49.432;8.680;2023-08-07T04:29:36;12.20;99.90
10417;DHT22;62605;49.432;8.680;2023-08-07T04:32:03;12.20;99.90
10417;DHT22;62605;49.432;8.680;2023-08-07T04:34:31;12.20;99.90
10417;DHT22;62605;49.432;8.680;2023-08-07T04:36:58;12.20;99.90
10417;DHT22;62605;49.432;8.680;2023-08-07T04:39:27;12.20;99.90
10417;DHT22;62605;49.432;8.680;2023-08-07T04:41:54;12.30;99.90
10417;DHT22;62605;49.432;8.680;2023-08-07T04:44:21;12.20;99.90
10417;DHT22;62605;49.432;8.680;2023-08-07T04:46:48;12.20;99.90
10417;DHT22;62605;49.432;8.680;2023-08-07T04:49:15;12.20;99.90
10417;DHT22;62605;49.432;8.680;2023-08-07T04:51:43;12.20;99.90
10417;DHT22;62605;49.432;8.680;2023-08-07T04:54:10;12.30;99.90
10417;DHT22;62605;49.432;8.680;2023-08-07T04:56:38;12.30;99.90
10417;DHT22;62605;49.432;8.680;2023-08-07T04:59:06;12.20;99.90
10417;DHT22;62605;49.432;8.680;2023-08-07T05:01:33;12.20;99.90
10417;DHT22;62605;49.432;8.680;2023-08-07T05:04:00;12.20;99.90
10417;DHT22;62605;49.432;8.680;2023-08-07T05:06:27;12.30;99.90
10417;DHT22;62605;49.432;8.680;2023-08-07T05:08:54;12.20;99.90
10417;DHT22;62605;49.432;8.680;2023-08-07T05:11:21;12.20;99.90
10417;DHT22;62605;49.432;8.680;2023-08-07T05:13:50;12.30;99.90
10417;DHT22;62605;49.432;8.680;2023-08-07T05:16:17;12.30;99.90
10417;DHT22;62605;49.432;8.680;2023-08-07T05:18:44;12.30;99.90
10417;DHT22;62605;49.432;8.680;2023-08-07T05:21:11;12.30;99.90
10417;DHT22;62605;49.432;8.680;2023-08-07T05:23:38;12.40;99.90
10417;DHT22;62605;49.432;8.680;2023-08-07T05:26:05;12.40;99.90
10417;DHT22;62605;49.432;8.680;2023-08-07T05:28:32;12.30;99.90
10417;DHT22;62605;49.432;8.680;2023-08-07T05:31:00;12.30;99.90
10417;DHT22;62605;49.432;8.680;2023-08-07T05:33:27;12.40;99.90
10417;DHT22;62605;49.432;8.680;2023-08-07T05:35:54;12.40;99.90
10417;DHT22;62605;49.432;8.680;2023-08-07T05:38:21;12.50;99.90
10417;DHT22;62605;49.432;8.680;2023-08-07T05:40:48;12.40;99.90
10417;DHT22;62605;49.432;8.680;2023-08-07T05:43:16;12.50;99.90
10417;DHT22;62605;49.432;8.680;2023-08-07T05:45:43;12.50;99.90
10417;DHT22;62605;49.432;8.680;2023-08-07T05:48:13;12.50;99.90
10417;DHT22;62605;49.432;8.680;2023-08-07T05:50:40;12.50;99.90
10417;DHT22;62605;49.432;8.680;2023-08-07T05:53:07;12.40;99.90
10417;DHT22;62605;49.432;8.680;2023-08-07T05:55:34;12.50;99.90
10417;DHT22;62605;49.432;8.680;2023-08-07T05:58:01;12.50;99.90
10417;DHT22;62605;49.432;8.680;2023-08-07T06:00:28;12.50;99.90
10417;DHT22;62605;49.432;8.680;2023-08-07T06:02:55;12.60;99.90
10417;DHT22;62605;49.432;8.680;2023-08-07T06:05:24;12.70;99.90
10417;DHT22;62605;49.432;8.680;2023-08-07T06:07:51;12.70;99.90
10417;DHT22;62605;49.432;8.680;2023-08-07T06:10:18;12.60;99.90
10417;DHT22;62605;49.432;8.680;2023-08-07T06:12:45;12.70;99.90
10417;DHT22;62605;49.432;8.680;2023-08-07T06:15:12;12.70;99.90
10417;DHT22;62605;49.432;8.680;2023-08-07T06:17:39;12.70;99.90
10417;DHT22;62605;49.432;8.680;2023-08-07T06:20:07;12.70;99.90
10417;DHT22;62605;49.432;8.680;2023-08-07T06:22:38;12.70;99.90
10417;DHT22;62605;49.432;8.680;2023-08-07T06:25:06;12.70;99.90
10417;DHT22;62605;49.432;8.680;2023-08-07T06:27:36;12.80;99.90
10417;DHT22;62605;49.432;8.680;2023-08-07T06:30:03;12.80;99.90
10417;DHT22;62605;49.432;8.680;2023-08-07T06:32:31;12.80;99.90
10417;DHT22;62605;49.432;8.680;2023-08-07T06:34:58;12.80;99.90
10417;DHT22;62605;49.432;8.680;2023-08-07T06:37:25;12.80;99.90
10417;DHT22;62605;49.432;8.680;2023-08-07T06:39:53;12.80;99.90
10417;DHT22;62605;49.432;8.680;2023-08-07T06:42:20;12.90;99.90
10417;DHT22;62605;49.432;8.680;2023-08-07T06:44:47;12.90;99.90
10417;DHT22;62605;49.432;8.680;2023-08-07T06:47:15;13.00;99.90
10417;DHT22;62605;49.432;8.680;2023-08-07T06:49:42;13.00;99.90
10417;DHT22;62605;49.432;8.680;2023-08-07T06:52:09;13.00;99.90
10417;DHT22;62605;49.432;8.680;2023-08-07T06:54:36;13.10;99.90
10417;DHT22;62605;49.432;8.680;2023-08-07T06:57:05;13.10;99.90
10417;DHT22;62605;49.432;8.680;2023-08-07T06:59:32;13.10;99.90
10417;DHT22;62605;49.432;8.680;2023-08-07T07:01:59;13.10;99.90
10417;DHT22;62605;49.432;8.680;2023-08-07T07:04:26;13.00;99.90
10417;DHT22;62605;49.432;8.680;2023-08-07T07:06:54;13.10;99.90
10417;DHT22;62605;49.432;8.680;2023-08-07T07:09:23;13.10;99.90
10417;DHT22;62605;49.432;8.680;2023-08-07T07:11:51;13.10;99.90
10417;DHT22;62605;49.432;8.680;2023-08-07T07:14:20;13.20;99.90
10417;DHT22;62605;49.432;8.680;2023-08-07T07:16:47;13.20;99.90
10417;DHT22;62605;49.432;8.680;2023-08-07T07:19:14;13.20;99.90
10417;DHT22;62605;49.432;8.680;2023-08-07T07:21:42;13.20;99.90
10417;DHT22;62605;49.432;8.680;2023-08-07T07:24:09;13.20;99.90
10417;DHT22;62605;49.432;8.680;2023-08-07T07:26:36;13.20;99.90
10417;DHT22;62605;49.432;8.680;2023-08-07T07:29:03;13.30;99.90
10417;DHT22;62605;49.432;8.680;2023-08-07T07:31:31;13.30;99.90
10417;DHT22;62605;49.432;8.680;2023-08-07T07:33:58;13.30;99.90
10417;DHT22;62605;49.432;8.680;2023-08-07T07:36:25;13.30;99.90
10417;DHT22;62605;49.432;8.680;2023-08-07T07:38:52;13.30;99.90
10417;DHT22;62605;49.432;8.680;2023-08-07T07:41:19;13.30;99.90
10417;DHT22;62605;49.432;8.680;2023-08-07T07:43:46;13.30;99.90
10417;DHT22;62605;49.432;8.680;2023-08-07T07:46:14;13.30;99.90
10417;DHT22;62605;49.432;8.680;2023-08-07T07:48:42;13.30;99.90
10417;DHT22;62605;49.432;8.680;2023-08-07T07:51:09;13.30;99.90
10417;DHT22;62605;49.432;8.680;2023-08-07T07:53:36;13.30;99.90
10417;DHT22;62605;49.432;8.680;2023-08-07T07:56:04;13.20;99.90
10417;DHT22;62605;49.432;8.680;2023-08-07T07:58:31;13.20;99.90
10417;DHT22;62605;49.432;8.680;2023-08-07T08:00:58;13.10;99.90
10417;DHT22;62605;49.432;8.680;2023-08-07T08:03:25;13.20;99.90
10417;DHT22;62605;49.432;8.680;2023-08-07T08:05:54;13.20;99.90
10417;DHT22;62605;49.432;8.680;2023-08-07T08:08:21;13.10;99.90
10417;DHT22;62605;49.432;8.680;2023-08-07T08:10:48;13.20;99.90
10417;DHT22;62605;49.432;8.680;2023-08-07T08:13:17;13.10;99.90
10417;DHT22;62605;49.432;8.680;2023-08-07T08:15:44;13.10;99.90
10417;DHT22;62605;49.432;8.680;2023-08-07T08:18:12;13.10;99.90
10417;DHT22;62605;49.432;8.680;2023-08-07T08:20:39;13.10;99.90
10417;DHT22;62605;49.432;8.680;2023-08-07T08:23:07;13.00;99.90
10417;DHT22;62605;49.432;8.680;2023-08-07T08:25:34;12.90;99.90
10417;DHT22;62605;49.432;8.680;2023-08-07T08:28:01;13.00;99.90
10417;DHT22;62605;49.432;8.680;2023-08-07T08:30:29;13.00;99.90
10417;DHT22;62605;49.432;8.680;2023-08-07T08:32:56;13.00;99.90
10417;DHT22;62605;49.432;8.680;2023-08-07T08:35:23;13.10;99.90
10417;DHT22;62605;49.432;8.680;2023-08-07T08:37:50;13.30;99.90
10417;DHT22;62605;49.432;8.680;2023-08-07T08:40:18;13.30;99.90
10417;DHT22;62605;49.432;8.680;2023-08-07T08:42:46;13.40;99.90
10417;DHT22;62605;49.432;8.680;2023-08-07T08:45:14;13.60;99.90
10417;DHT22;62605;49.432;8.680;2023-08-07T08:47:42;13.60;99.90
10417;DHT22;62605;49.432;8.680;2023-08-07T08:50:12;13.70;99.90
10417;DHT22;62605;49.432;8.680;2023-08-07T08:52:42;13.70;99.90
10417;DHT22;62605;49.432;8.680;2023-08-07T08:55:10;13.80;99.90
10417;DHT22;62605;49.432;8.680;2023-08-07T08:57:39;13.80;99.90
10417;DHT22;62605;49.432;8.680;2023-08-07T09:00:07;13.90;99.90
10417;DHT22;62605;49.432;8.680;2023-08-07T09:02:43;13.90;99.90
10417;DHT22;62605;49.432;8.680;2023-08-07T09:05:11;14.00;99.90
10417;DHT22;62605;49.432;8.680;2023-08-07T09:07:38;14.10;99.90
10417;DHT22;62605;49.432;8.680;2023-08-07T09:10:06;14.20;99.90
10417;DHT22;62605;49.432;8.680;2023-08-07T09:12:39;14.20;99.90
10417;DHT22;62605;49.432;8.680;2023-08-07T09:15:09;14.20;99.90
10417;DHT22;62605;49.432;8.680;2023-08-07T09:17:39;14.30;99.90
10417;DHT22;62605;49.432;8.680;2023-08-07T09:20:09;14.20;99.90
10417;DHT22;62605;49.432;8.680;2023-08-07T09:22:38;14.20;99.90
10417;DHT22;62605;49.432;8.680;2023-08-07T09:25:07;14.30;99.90
10417;DHT22;62605;49.432;8.680;2023-08-07T09:27:36;14.30;99.90
10417;DHT22;62605;49.432;8.680;2023-08-07T09:30:07;14.40;99.90
10417;DHT22;62605;49.432;8.680;2023-08-07T09:32:35;14.50;99.90
10417;DHT22;62605;49.432;8.680;2023-08-07T09:35:05;14.60;99.90
10417;DHT22;62605;49.432;8.680;2023-08-07T09:37:32;14.60;99.90
10417;DHT22;62605;49.432;8.680;2023-08-07T09:40:00;14.70;99.90
10417;DHT22;62605;49.432;8.680;2023-08-07T09:42:31;14.70;99.90
10417;DHT22;62605;49.432;8.680;2023-08-07T09:45:00;14.60;99.90
10417;DHT22;62605;49.432;8.680;2023-08-07T09:47:28;14.50;99.90
10417;DHT22;62605;49.432;8.680;2023-08-07T09:49:56;14.40;99.90
10417;DHT22;62605;49.432;8.680;2023-08-07T09:52:24;14.30;99.90
10417;DHT22;62605;49.432;8.680;2023-08-07T09:54:56;14.30;99.90
10417;DHT22;62605;49.432;8.680;2023-08-07T09:57:24;14.30;99.90
10417;DHT22;62605;49.432;8.680;2023-08-07T09:59:52;14.50;99.90
10417;DHT22;62605;49.432;8.680;2023-08-07T10:02:20;14.50;99.90
10417;DHT22;62605;49.432;8.680;2023-08-07T10:04:50;14.60;99.90
10417;DHT22;62605;49.432;8.680;2023-08-07T10:07:18;14.40;99.90
10417;DHT22;62605;49.432;8.680;2023-08-07T10:09:47;14.40;99.90
10417;DHT22;62605;49.432;8.680;2023-08-07T10:12:16;14.50;99.90
10417;DHT22;62605;49.432;8.680;2023-08-07T10:14:45;14.40;99.90
10417;DHT22;62605;49.432;8.680;2023-08-07T10:17:12;14.50;99.90
10417;DHT22;62605;49.432;8.680;2023-08-07T10:19:39;14.50;99.90
10417;DHT22;62605;49.432;8.680;2023-08-07T10:22:08;14.50;99.90
10417;DHT22;62605;49.432;8.680;2023-08-07T10:24:36;14.50;99.90
10417;DHT22;62605;49.432;8.680;2023-08-07T10:27:07;14.50;99.90
10417;DHT22;62605;49.432;8.680;2023-08-07T10:29:35;14.30;99.90
10417;DHT22;62605;49.432;8.680;2023-08-07T10:32:05;14.20;99.90
10417;DHT22;62605;49.432;8.680;2023-08-07T10:34:33;14.40;99.90
10417;DHT22;62605;49.432;8.680;2023-08-07T10:37:01;14.40;99.90
10417;DHT22;62605;49.432;8.680;2023-08-07T10:39:29;14.30;99.90
10417;DHT22;62605;49.432;8.680;2023-08-07T10:41:56;14.30;99.90
10417;DHT22;62605;49.432;8.680;2023-08-07T10:44:24;14.30;99.90
10417;DHT22;62605;49.432;8.680;2023-08-07T10:46:53;14.40;99.90
10417;DHT22;62605;49.432;8.680;2023-08-07T10:49:31;14.40;99.90
10417;DHT22;62605;49.432;8.680;2023-08-07T10:52:01;14.40;99.90
10417;DHT22;62605;49.432;8.680;2023-08-07T10:54:30;14.40;99.90
10417;DHT22;62605;49.432;8.680;2023-08-07T10:56:59;14.40;99.90
10417;DHT22;62605;49.432;8.680;2023-08-07T10:59:29;14.50;99.90
10417;DHT22;62605;49.432;8.680;2023-08-07T11:01:59;14.60;99.90
10417;DHT22;62605;49.432;8.680;2023-08-07T11:04:26;14.50;99.90
10417;DHT22;62605;49.432;8.680;2023-08-07T11:06:53;14.50;99.90
10417;DHT22;62605;49.432;8.680;2023-08-07T11:09:20;14.50;99.90
10417;DHT22;62605;49.432;8.680;2023-08-07T11:11:49;14.50;99.90
10417;DHT22;62605;49.432;8.680;2023-08-07T11:14:17;14.50;99.90
10417;DHT22;62605;49.432;8.680;2023-08-07T11:16:45;14.50;99.90
10417;DHT22;62605;49.432;8.680;2023-08-07T11:19:13;14.50;99.90
10417;DHT22;62605;49.432;8.680;2023-08-07T11:21:42;14.40;99.90
10417;DHT22;62605;49.432;8.680;2023-08-07T11:24:11;14.50;99.90
10417;DHT22;62605;49.432;8.680;2023-08-07T11:26:38;14.50;99.90
10417;DHT22;62605;49.432;8.680;2023-08-07T11:29:07;14.40;99.90
10417;DHT22;62605;49.432;8.680;2023-08-07T11:31:35;14.40;99.90
10417;DHT22;62605;49.432;8.680;2023-08-07T11:34:02;14.60;99.90
10417;DHT22;62605;49.432;8.680;2023-08-07T11:36:29;14.40;99.90
10417;DHT22;62605;49.432;8.680;2023-08-07T11:38:57;14.60;99.90
10417;DHT22;62605;49.432;8.680;2023-08-07T11:41:24;14.80;99.90
10417;DHT22;62605;49.432;8.680;2023-08-07T11:43:51;14.80;99.90
10417;DHT22;62605;49.432;8.680;2023-08-07T11:46:19;14.90;99.90
10417;DHT22;62605;49.432;8.680;2023-08-07T11:48:47;14.80;99.90
10417;DHT22;62605;49.432;8.680;2023-08-07T11:51:14;15.00;99.90
10417;DHT22;62605;49.432;8.680;2023-08-07T11:53:42;15.00;99.90
10417;DHT22;62605;49.432;8.680;2023-08-07T11:56:11;15.10;99.90
10417;DHT22;62605;49.432;8.680;2023-08-07T11:58:40;15.10;99.90
10417;DHT22;62605;49.432;8.680;2023-08-07T12:01:10;15.00;99.90
10417;DHT22;62605;49.432;8.680;2023-08-07T12:03:50;15.20;99.90
10417;DHT22;62605;49.432;8.680;2023-08-07T12:06:17;15.20;99.90
10417;DHT22;62605;49.432;8.680;2023-08-07T12:08:44;15.10;99.90
10417;DHT22;62605;49.432;8.680;2023-08-07T12:11:13;15.00;99.90
10417;DHT22;62605;49.432;8.680;2023-08-07T12:13:41;15.00;99.90
10417;DHT22;62605;49.432;8.680;2023-08-07T12:16:09;14.90;99.90
10417;DHT22;62605;49.432;8.680;2023-08-07T12:18:43;14.90;99.90
10417;DHT22;62605;49.432;8.680;2023-08-07T12:21:11;14.80;99.90
10417;DHT22;62605;49.432;8.680;2023-08-07T12:23:40;14.80;99.90
10417;DHT22;62605;49.432;8.680;2023-08-07T12:26:07;14.80;99.90
10417;DHT22;62605;49.432;8.680;2023-08-07T12:28:34;14.80;99.90
10417;DHT22;62605;49.432;8.680;2023-08-07T12:31:02;15.00;99.90
10417;DHT22;62605;49.432;8.680;2023-08-07T12:33:29;15.20;99.90
10417;DHT22;62605;49.432;8.680;2023-08-07T12:35:58;15.30;99.90
10417;DHT22;62605;49.432;8.680;2023-08-07T12:38:26;15.30;99.90
10417;DHT22;62605;49.432;8.680;2023-08-07T12:40:53;15.10;99.90
10417;DHT22;62605;49.432;8.680;2023-08-07T12:43:20;15.10;99.90
10417;DHT22;62605;49.432;8.680;2023-08-07T12:45:52;15.00;99.90
10417;DHT22;62605;49.432;8.680;2023-08-07T12:48:28;15.10;99.90
10417;DHT22;62605;49.432;8.680;2023-08-07T12:50:59;15.10;99.90
10417;DHT22;62605;49.432;8.680;2023-08-07T12:53:26;15.00;99.90
10417;DHT22;62605;49.432;8.680;2023-08-07T12:55:54;15.10;99.90
10417;DHT22;62605;49.432;8.680;2023-08-07T12:58:21;15.10;99.90
10417;DHT22;62605;49.432;8.680;2023-08-07T13:00:51;15.20;99.90
10417;DHT22;62605;49.432;8.680;2023-08-07T13:03:18;15.10;99.90
10417;DHT22;62605;49.432;8.680;2023-08-07T13:05:45;15.20;99.90
10417;DHT22;62605;49.432;8.680;2023-08-07T13:08:13;15.30;99.90
10417;DHT22;62605;49.432;8.680;2023-08-07T13:10:40;15.20;99.90
10417;DHT22;62605;49.432;8.680;2023-08-07T13:13:07;15.30;99.90
10417;DHT22;62605;49.432;8.680;2023-08-07T13:15:34;15.40;99.90
10417;DHT22;62605;49.432;8.680;2023-08-07T13:18:01;15.30;99.90
10417;DHT22;62605;49.432;8.680;2023-08-07T13:20:29;15.40;99.90
10417;DHT22;62605;49.432;8.680;2023-08-07T13:23:00;15.30;99.90
10417;DHT22;62605;49.432;8.680;2023-08-07T13:25:28;15.20;99.90
10417;DHT22;62605;49.432;8.680;2023-08-07T13:27:55;15.20;99.90
10417;DHT22;62605;49.432;8.680;2023-08-07T13:30:22;15.20;99.90
10417;DHT22;62605;49.432;8.680;2023-08-07T13:32:49;15.20;99.90
10417;DHT22;62605;49.432;8.680;2023-08-07T13:35:16;15.20;99.90
10417;DHT22;62605;49.432;8.680;2023-08-07T13:37:43;15.30;99.90
10417;DHT22;62605;49.432;8.680;2023-08-07T13:40:11;15.50;99.90
10417;DHT22;62605;49.432;8.680;2023-08-07T13:42:41;15.70;99.90
10417;DHT22;62605;49.432;8.680;2023-08-07T13:45:09;15.70;99.90
10417;DHT22;62605;49.432;8.680;2023-08-07T13:47:36;15.90;99.90
10417;DHT22;62605;49.432;8.680;2023-08-07T13:50:05;16.20;99.90
10417;DHT22;62605;49.432;8.680;2023-08-07T13:52:33;16.50;99.90
10417;DHT22;62605;49.432;8.680;2023-08-07T13:55:00;16.40;99.90
10417;DHT22;62605;49.432;8.680;2023-08-07T13:57:27;16.40;99.90
10417;DHT22;62605;49.432;8.680;2023-08-07T13:59:55;16.30;99.90
10417;DHT22;62605;49.432;8.680;2023-08-07T14:02:22;16.20;99.90
10417;DHT22;62605;49.432;8.680;2023-08-07T14:04:50;16.40;99.90
10417;DHT22;62605;49.432;8.680;2023-08-07T14:07:17;16.70;99.90
10417;DHT22;62605;49.432;8.680;2023-08-07T14:09:44;17.00;99.90
10417;DHT22;62605;49.432;8.680;2023-08-07T14:12:12;17.20;99.90
10417;DHT22;62605;49.432;8.680;2023-08-07T14:14:39;17.70;99.90
10417;DHT22;62605;49.432;8.680;2023-08-07T14:17:07;18.10;99.90
10417;DHT22;62605;49.432;8.680;2023-08-07T14:19:34;18.60;99.90
10417;DHT22;62605;49.432;8.680;2023-08-07T14:22:02;18.70;99.90
10417;DHT22;62605;49.432;8.680;2023-08-07T14:24:29;19.00;99.90
10417;DHT22;62605;49.432;8.680;2023-08-07T14:26:56;19.20;99.90
10417;DHT22;62605;49.432;8.680;2023-08-07T14:29:23;18.90;99.90
10417;DHT22;62605;49.432;8.680;2023-08-07T14:31:50;18.90;99.90
10417;DHT22;62605;49.432;8.680;2023-08-07T14:34:18;18.80;99.90
10417;DHT22;62605;49.432;8.680;2023-08-07T14:36:45;18.60;99.90
10417;DHT22;62605;49.432;8.680;2023-08-07T14:39:12;18.50;99.90
10417;DHT22;62605;49.432;8.680;2023-08-07T14:41:39;18.30;99.90
10417;DHT22;62605;49.432;8.680;2023-08-07T14:44:06;18.40;99.90
10417;DHT22;62605;49.432;8.680;2023-08-07T14:46:33;18.50;99.90
10417;DHT22;62605;49.432;8.680;2023-08-07T14:49:00;18.50;99.90
10417;DHT22;62605;49.432;8.680;2023-08-07T14:51:29;19.20;99.90
10417;DHT22;62605;49.432;8.680;2023-08-07T14:53:57;19.70;99.90
10417;DHT22;62605;49.432;8.680;2023-08-07T14:56:24;19.90;99.90
10417;DHT22;62605;49.432;8.680;2023-08-07T14:58:51;19.40;99.90
10417;DHT22;62605;49.432;8.680;2023-08-07T15:01:18;19.30;99.90
10417;DHT22;62605;49.432;8.680;2023-08-07T15:03:46;19.20;99.90
10417;DHT22;62605;49.432;8.680;2023-08-07T15:06:13;18.80;99.90
10417;DHT22;62605;49.432;8.680;2023-08-07T15:08:42;19.00;99.90
10417;DHT22;62605;49.432;8.680;2023-08-07T15:11:10;19.40;99.90
10417;DHT22;62605;49.432;8.680;2023-08-07T15:13:40;19.60;99.90
10417;DHT22;62605;49.432;8.680;2023-08-07T15:16:08;19.40;99.90
10417;DHT22;62605;49.432;8.680;2023-08-07T15:18:39;19.20;99.90
10417;DHT22;62605;49.432;8.680;2023-08-07T15:21:08;19.00;99.90
10417;DHT22;62605;49.432;8.680;2023-08-07T15:23:37;19.70;99.90
10417;DHT22;62605;49.432;8.680;2023-08-07T15:26:05;19.90;99.90
10417;DHT22;62605;49.432;8.680;2023-08-07T15:28:32;21.00;99.90
10417;DHT22;62605;49.432;8.680;2023-08-07T15:30:59;21.00;99.90
10417;DHT22;62605;49.432;8.680;2023-08-07T15:33:26;21.10;99.90
10417;DHT22;62605;49.432;8.680;2023-08-07T15:35:54;21.00;99.90
10417;DHT22;62605;49.432;8.680;2023-08-07T15:38:21;20.90;70.00
10417;DHT22;62605;49.432;8.680;2023-08-07T15:40:48;20.70;46.30
10417;DHT22;62605;49.432;8.680;2023-08-07T15:43:16;20.30;15.60
10417;DHT22;62605;49.432;8.680;2023-08-07T15:45:44;19.70;1.00
10417;DHT22;62605;49.432;8.680;2023-08-07T15:48:13;19.40;1.00
10417;DHT22;62605;49.432;8.680;2023-08-07T15:50:40;19.20;1.00
10417;DHT22;62605;49.432;8.680;2023-08-07T15:53:07;19.20;1.00
10417;DHT22;62605;49.432;8.680;2023-08-07T15:55:34;19.20;1.00
10417;DHT22;62605;49.432;8.680;2023-08-07T15:58:02;19.20;1.00
10417;DHT22;62605;49.432;8.680;2023-08-07T16:00:32;19.30;1.00
10417;DHT22;62605;49.432;8.680;2023-08-07T16:03:01;19.50;1.00
10417;DHT22;62605;49.432;8.680;2023-08-07T16:05:30;19.90;1.00
10417;DHT22;62605;49.432;8.680;2023-08-07T16:07:57;21.00;1.00
10417;DHT22;62605;49.432;8.680;2023-08-07T16:10:24;21.00;1.00
10417;DHT22;62605;49.432;8.680;2023-08-07T16:12:53;20.50;1.00
10417;DHT22;62605;49.432;8.680;2023-08-07T16:15:21;19.90;1.00
10417;DHT22;62605;49.432;8.680;2023-08-07T16:17:50;19.70;1.00
10417;DHT22;62605;49.432;8.680;2023-08-07T16:20:17;19.90;1.00
10417;DHT22;62605;49.432;8.680;2023-08-07T16:22:44;20.80;1.00
10417;DHT22;62605;49.432;8.680;2023-08-07T16:25:11;21.40;1.00
10417;DHT22;62605;49.432;8.680;2023-08-07T16:27:39;21.60;1.00
10417;DHT22;62605;49.432;8.680;2023-08-07T16:30:07;21.20;1.00
10417;DHT22;62605;49.432;8.680;2023-08-07T16:32:35;20.70;1.00
10417;DHT22;62605;49.432;8.680;2023-08-07T16:35:05;20.20;1.00
10417;DHT22;62605;49.432;8.680;2023-08-07T16:37:32;19.90;1.00
10417;DHT22;62605;49.432;8.680;2023-08-07T16:39:59;19.80;1.00
10417;DHT22;62605;49.432;8.680;2023-08-07T16:42:26;19.80;1.00
10417;DHT22;62605;49.432;8.680;2023-08-07T16:44:53;20.10;1.00
10417;DHT22;62605;49.432;8.680;2023-08-07T16:47:21;20.50;1.00
10417;DHT22;62605;49.432;8.680;2023-08-07T16:49:48;20.50;1.00
10417;DHT22;62605;49.432;8.680;2023-08-07T16:52:17;20.40;1.00
10417;DHT22;62605;49.432;8.680;2023-08-07T16:54:45;20.60;1.00
10417;DHT22;62605;49.432;8.680;2023-08-07T16:57:14;20.50;1.00
10417;DHT22;62605;49.432;8.680;2023-08-07T16:59:41;20.50;1.00
10417;DHT22;62605;49.432;8.680;2023-08-07T17:02:08;20.40;1.00
10417;DHT22;62605;49.432;8.680;2023-08-07T17:04:35;20.30;1.00
10417;DHT22;62605;49.432;8.680;2023-08-07T17:07:03;19.90;99.90
10417;DHT22;62605;49.432;8.680;2023-08-07T17:09:32;19.80;99.90
10417;DHT22;62605;49.432;8.680;2023-08-07T17:11:59;19.80;99.90
10417;DHT22;62605;49.432;8.680;2023-08-07T17:14:26;19.80;99.90
10417;DHT22;62605;49.432;8.680;2023-08-07T17:16:53;20.30;99.90
10417;DHT22;62605;49.432;8.680;2023-08-07T17:19:20;20.60;99.90
10417;DHT22;62605;49.432;8.680;2023-08-07T17:21:48;21.20;99.90
10417;DHT22;62605;49.432;8.680;2023-08-07T17:24:15;22.10;1.00
10417;DHT22;62605;49.432;8.680;2023-08-07T17:26:43;21.40;99.90
10417;DHT22;62605;49.432;8.680;2023-08-07T17:29:10;21.10;99.90
10417;DHT22;62605;49.432;8.680;2023-08-07T17:31:37;21.30;99.90
10417;DHT22;62605;49.432;8.680;2023-08-07T17:34:04;21.40;99.90
10417;DHT22;62605;49.432;8.680;2023-08-07T17:36:31;21.80;99.90